Time;durP1;ratioP1;P1;durP2;ratioP2;P2;SDS_P1;SDS_P2;PMS_P1;PMS_P2;Temp;Humidity;BMP_temperature;BMP_pressure;BME280_temperature;BME280_humidity;BME280_pressure;Samples;Min_cycle;Max_cycle;Signal;HPM_P1;HPM_P2
2022/12/26 00:00:52;;;;;;;17.80;11.10;;;8.70;44.10;;;;;;4965313;28;20485;-61
2022/12/26 00:03:19;;;;;;;15.00;10.03;;;8.70;44.00;;;;;;4960043;28;20462;-61
2022/12/26 00:05:47;;;;;;;15.40;9.60;;;8.60;43.90;;;;;;4958488;28;20457;-61
2022/12/26 00:08:14;;;;;;;14.53;9.50;;;8.60;43.80;;;;;;4964094;28;20845;-62
2022/12/26 00:10:41;;;;;;;17.07;9.43;;;8.50;43.70;;;;;;4959313;28;20489;-62
2022/12/26 00:13:08;;;;;;;15.83;9.97;;;8.50;43.80;;;;;;4961306;28;20457;-61
2022/12/26 00:15:35;;;;;;;16.00;9.57;;;8.40;43.90;;;;;;4961897;28;20476;-62
2022/12/26 00:18:01;;;;;;;15.10;9.40;;;8.40;43.90;;;;;;4959724;28;20466;-63
2022/12/26 00:20:28;;;;;;;17.30;10.63;;;8.40;44.00;;;;;;4961661;28;20485;-63
2022/12/26 00:22:56;;;;;;;15.53;9.00;;;8.40;44.20;;;;;;4960829;28;21073;-62
2022/12/26 00:25:23;;;;;;;14.40;10.03;;;8.40;44.30;;;;;;4961509;28;20461;-63
2022/12/26 00:27:50;;;;;;;17.73;10.77;;;8.40;44.40;;;;;;4962108;28;20473;-60
2022/12/26 00:30:16;;;;;;;14.97;9.20;;;8.30;44.40;;;;;;4962996;28;20504;-64
2022/12/26 00:32:43;;;;;;;14.53;9.20;;;8.30;44.60;;;;;;4960330;28;20473;-62
2022/12/26 00:35:10;;;;;;;14.90;9.80;;;8.30;44.40;;;;;;4964401;28;20490;-62
2022/12/26 00:37:37;;;;;;;13.07;8.80;;;8.20;44.30;;;;;;4959003;28;20469;-62
2022/12/26 00:40:07;;;;;;;13.37;9.60;;;8.20;44.30;;;;;;4960810;28;20492;-62
2022/12/26 00:42:33;;;;;;;13.63;9.07;;;8.20;44.40;;;;;;4961067;28;20458;-62
2022/12/26 00:45:00;;;;;;;15.20;9.70;;;8.20;44.40;;;;;;4962757;28;20473;-62
2022/12/26 00:47:27;;;;;;;11.93;8.17;;;8.10;44.40;;;;;;4964927;28;20468;-62
2022/12/26 00:49:54;;;;;;;13.53;9.07;;;8.10;44.60;;;;;;4968294;28;20498;-62
2022/12/26 00:52:20;;;;;;;13.80;8.60;;;8.00;44.50;;;;;;4966584;28;20469;-62
2022/12/26 00:54:47;;;;;;;13.03;9.07;;;8.00;44.80;;;;;;4963715;28;20477;-62
2022/12/26 00:57:15;;;;;;;15.97;10.47;;;8.00;44.80;;;;;;4964840;28;20693;-62
2022/12/26 00:59:42;;;;;;;13.63;8.70;;;7.90;44.90;;;;;;4966207;28;20489;-62
2022/12/26 01:02:36;;;;;;;13.73;9.10;;;7.90;44.90;;;;;;4963319;28;20493;-62
2022/12/26 01:05:03;;;;;;;12.73;9.03;;;7.90;45.00;;;;;;4965104;28;20835;-62
2022/12/26 01:07:33;;;;;;;14.70;9.93;;;7.90;45.00;;;;;;4965774;28;20468;-62
2022/12/26 01:10:00;;;;;;;16.23;9.53;;;7.90;45.10;;;;;;4967582;28;20583;-62
2022/12/26 01:12:29;;;;;;;14.37;9.20;;;7.90;45.00;;;;;;4964172;28;20474;-62
2022/12/26 01:14:56;;;;;;;15.53;8.90;;;7.80;44.90;;;;;;4963834;28;20497;-62
2022/12/26 01:17:22;;;;;;;11.90;7.50;;;7.90;45.00;;;;;;4968060;28;20457;-62
2022/12/26 01:19:49;;;;;;;13.87;8.93;;;7.80;44.90;;;;;;4963617;28;20478;-62
2022/12/26 01:22:16;;;;;;;12.63;8.03;;;7.80;45.10;;;;;;4966210;28;20469;-62
2022/12/26 01:24:43;;;;;;;14.53;8.47;;;7.70;45.20;;;;;;4967388;28;20453;-62
2022/12/26 01:27:10;;;;;;;17.20;9.03;;;7.70;45.00;;;;;;4968117;28;20492;-62
2022/12/26 01:29:38;;;;;;;14.77;9.33;;;7.70;45.10;;;;;;4960096;28;20489;-62
2022/12/26 01:32:05;;;;;;;13.17;8.77;;;7.60;45.10;;;;;;4961739;28;20478;-62
2022/12/26 01:34:32;;;;;;;12.20;8.10;;;7.60;45.00;;;;;;4958449;28;20524;-62
2022/12/26 01:36:59;;;;;;;13.90;9.27;;;7.60;45.00;;;;;;4965718;28;20476;-62
2022/12/26 01:39:25;;;;;;;15.90;8.70;;;7.50;45.00;;;;;;4965285;28;20481;-61
2022/12/26 01:41:52;;;;;;;13.17;7.33;;;7.50;45.20;;;;;;4961457;28;20886;-62
2022/12/26 01:45:01;;;;;;;15.60;8.50;;;7.50;45.20;;;;;;4961690;28;20830;-62
2022/12/26 01:47:39;;;;;;;11.27;7.27;;;7.60;45.30;;;;;;4963682;28;20832;-62
2022/12/26 01:50:15;;;;;;;10.60;6.60;;;7.60;45.30;;;;;;4967883;28;20488;-62
2022/12/26 01:52:45;;;;;;;10.47;6.50;;;7.50;45.10;;;;;;4964876;28;20959;-61
2022/12/26 01:55:15;;;;;;;11.07;6.90;;;7.60;45.30;;;;;;4966767;28;20496;-62
2022/12/26 01:57:45;;;;;;;10.87;6.90;;;7.50;45.20;;;;;;4965381;28;20468;-61
2022/12/26 02:00:14;;;;;;;10.63;6.43;;;7.60;45.20;;;;;;4965721;28;20482;-62
2022/12/26 02:05:36;;;;;;;11.87;6.90;;;7.60;45.10;;;;;;4960019;28;20445;-61
2022/12/26 02:08:06;;;;;;;11.87;7.57;;;7.50;45.00;;;;;;4964015;28;20460;-62
2022/12/26 02:10:36;;;;;;;13.53;7.73;;;7.50;45.00;;;;;;4963143;28;20482;-62
2022/12/26 02:13:04;;;;;;;10.60;6.70;;;7.50;44.70;;;;;;4965170;28;20962;-62
2022/12/26 02:15:33;;;;;;;11.23;6.47;;;7.50;44.50;;;;;;4967035;28;20481;-62
2022/12/26 02:17:59;;;;;;;12.13;7.43;;;7.50;44.40;;;;;;4965794;28;20457;-63
2022/12/26 02:20:28;;;;;;;10.60;6.83;;;7.50;44.30;;;;;;4963437;28;20492;-63
2022/12/26 02:23:47;;;;;;;10.93;7.60;;;7.60;44.30;;;;;;4965508;28;20457;-62
2022/12/26 02:26:51;;;;;;;10.50;6.63;;;7.60;44.40;;;;;;4967720;28;20659;-63
2022/12/26 02:29:45;;;;;;;11.17;7.50;;;7.60;44.20;;;;;;4963184;28;21001;-63
2022/12/26 02:32:21;;;;;;;9.50;6.20;;;7.60;44.30;;;;;;4962149;28;20473;-62
2022/12/26 02:34:57;;;;;;;9.17;5.80;;;7.60;44.00;;;;;;4964055;28;20552;-62
2022/12/26 02:37:38;;;;;;;8.93;5.20;;;7.60;44.00;;;;;;4962528;28;20546;-62
2022/12/26 02:40:25;;;;;;;10.03;6.70;;;7.60;44.00;;;;;;4966249;28;20485;-62
2022/12/26 02:42:58;;;;;;;8.47;5.63;;;7.60;44.00;;;;;;4964265;28;20461;-62
2022/12/26 02:48:26;;;;;;;10.13;6.10;;;7.60;43.70;;;;;;4964651;28;20453;-62
2022/12/26 03:13:38;;;;;;;8.57;4.63;;;7.60;43.30;;;;;;4963367;28;20451;-63
2022/12/26 03:18:58;;;;;;;8.30;5.27;;;7.70;43.40;;;;;;4963982;28;20452;-62
2022/12/26 03:21:30;;;;;;;8.23;4.57;;;7.70;43.30;;;;;;4964037;28;21266;-62
2022/12/26 03:23:57;;;;;;;8.30;4.77;;;7.70;43.40;;;;;;4961064;28;20465;-62
2022/12/26 03:31:53;;;;;;;7.70;4.80;;;7.70;43.30;;;;;;4960348;28;20480;-63
2022/12/26 03:34:21;;;;;;;8.63;4.90;;;7.70;43.30;;;;;;4964799;28;20473;-63
2022/12/26 03:37:14;;;;;;;7.73;4.70;;;7.70;43.30;;;;;;4966799;28;20478;-63
2022/12/26 04:19:53;;;;;;;10.10;5.20;;;8.20;43.50;;;;;;4961065;28;20536;-62
2022/12/26 04:44:56;;;;;;;9.73;5.97;;;8.40;42.70;;;;;;4964016;28;20480;-63
2022/12/26 04:47:23;;;;;;;10.00;5.53;;;8.40;42.80;;;;;;4964852;28;20481;-63
2022/12/26 04:55:19;;;;;;;9.60;6.30;;;8.40;42.50;;;;;;4965516;28;20492;-62
2022/12/26 04:57:45;;;;;;;9.03;5.30;;;8.40;42.50;;;;;;4964907;28;20484;-63
2022/12/26 05:00:15;;;;;;;8.80;5.73;;;8.40;42.40;;;;;;4957982;28;20474;-63
2022/12/26 05:11:06;;;;;;;8.00;5.10;;;8.40;42.40;;;;;;4959141;28;20508;-62
2022/12/26 05:13:32;;;;;;;7.97;5.53;;;8.50;42.40;;;;;;4960851;28;20466;-63
2022/12/26 05:29:42;;;;;;;9.63;5.30;;;8.50;42.70;;;;;;4959142;28;20508;-64
2022/12/26 05:32:10;;;;;;;8.53;5.63;;;8.50;43.40;;;;;;4963722;28;20474;-63
2022/12/26 05:34:36;;;;;;;9.83;5.97;;;8.50;42.70;;;;;;4965858;28;20473;-63
2022/12/26 05:37:02;;;;;;;10.30;5.80;;;8.50;42.60;;;;;;4966599;28;20884;-64
2022/12/26 05:39:29;;;;;;;11.13;6.73;;;8.60;42.60;;;;;;4966034;28;20210;-63
2022/12/26 05:41:56;;;;;;;8.40;5.30;;;8.50;42.60;;;;;;4958692;28;20485;-63
2022/12/26 05:44:23;;;;;;;12.20;6.77;;;8.50;42.40;;;;;;4963573;28;21044;-63
2022/12/26 05:46:49;;;;;;;11.27;5.60;;;8.50;42.50;;;;;;4967033;28;20454;-64
2022/12/26 05:49:18;;;;;;;9.30;5.90;;;8.50;42.30;;;;;;4966953;28;20458;-63
2022/12/26 05:51:44;;;;;;;9.40;5.53;;;8.50;42.20;;;;;;4966854;28;20464;-63
2022/12/26 05:54:11;;;;;;;10.77;6.60;;;8.50;42.20;;;;;;4963424;28;20521;-63
2022/12/26 05:56:38;;;;;;;9.77;6.17;;;8.50;42.00;;;;;;4965807;28;20480;-63
2022/12/26 05:59:04;;;;;;;10.27;6.67;;;8.50;42.20;;;;;;4965431;28;20472;-63
2022/12/26 06:01:31;;;;;;;10.67;6.60;;;8.40;42.20;;;;;;4962536;28;20477;-63
2022/12/26 06:03:59;;;;;;;11.60;6.60;;;8.40;42.20;;;;;;4962244;28;20466;-63
2022/12/26 06:06:28;;;;;;;9.67;6.20;;;8.40;42.30;;;;;;4964846;28;20462;-63
2022/12/26 06:08:56;;;;;;;9.53;6.27;;;8.30;42.50;;;;;;4965018;28;20490;-63
2022/12/26 06:11:25;;;;;;;10.43;6.70;;;8.30;42.50;;;;;;4965950;28;20508;-63
2022/12/26 06:13:52;;;;;;;11.50;6.20;;;8.40;42.60;;;;;;4964316;28;20465;-65
2022/12/26 06:16:19;;;;;;;13.00;7.37;;;8.40;42.70;;;;;;4964870;28;20529;-63
2022/12/26 06:18:47;;;;;;;13.47;6.70;;;8.40;42.50;;;;;;4963815;28;21068;-63
2022/12/26 06:21:15;;;;;;;11.67;6.77;;;8.40;42.60;;;;;;4966688;28;20822;-63
2022/12/26 06:23:44;;;;;;;10.50;6.90;;;8.40;42.60;;;;;;4962579;28;20462;-63
2022/12/26 06:26:11;;;;;;;11.37;7.40;;;8.40;42.90;;;;;;4964743;28;20469;-63
2022/12/26 06:28:39;;;;;;;11.87;7.33;;;8.40;43.10;;;;;;4960482;28;20525;-63
2022/12/26 06:31:08;;;;;;;12.67;7.83;;;8.40;42.90;;;;;;4966315;28;20478;-63
2022/12/26 06:33:34;;;;;;;14.57;7.20;;;8.40;43.20;;;;;;4964914;28;20480;-63
2022/12/26 06:36:06;;;;;;;11.37;7.03;;;8.50;43.10;;;;;;4967887;28;20504;-64
2022/12/26 06:38:33;;;;;;;14.03;8.00;;;8.50;43.20;;;;;;4964229;28;20985;-63
2022/12/26 06:41:04;;;;;;;12.77;7.73;;;8.50;43.10;;;;;;4966755;28;20461;-63
2022/12/26 06:43:30;;;;;;;14.00;8.43;;;8.60;43.10;;;;;;4964966;28;20477;-64
2022/12/26 06:45:58;;;;;;;11.40;7.80;;;8.60;43.10;;;;;;4967203;28;20828;-63
2022/12/26 06:48:26;;;;;;;12.27;7.33;;;8.60;43.10;;;;;;4967243;28;20478;-63
2022/12/26 06:50:53;;;;;;;13.13;8.10;;;8.60;43.30;;;;;;4966050;28;20962;-63
2022/12/26 06:53:20;;;;;;;12.00;7.27;;;8.70;43.50;;;;;;4963888;28;21024;-63
2022/12/26 06:55:46;;;;;;;12.67;7.53;;;8.70;43.40;;;;;;4963103;28;20856;-63
2022/12/26 06:58:15;;;;;;;12.87;7.87;;;8.70;43.40;;;;;;4966347;28;20488;-63
2022/12/26 07:00:41;;;;;;;13.00;7.50;;;8.70;43.30;;;;;;4963746;28;20474;-62
2022/12/26 07:03:08;;;;;;;13.53;7.97;;;8.70;43.20;;;;;;4966106;28;21053;-63
2022/12/26 07:05:35;;;;;;;10.70;7.30;;;8.70;43.30;;;;;;4965634;28;20465;-63
2022/12/26 07:08:03;;;;;;;13.10;7.67;;;8.70;43.20;;;;;;4965869;28;20485;-63
2022/12/26 07:10:30;;;;;;;11.70;7.60;;;8.80;43.30;;;;;;4965644;28;20462;-63
2022/12/26 07:12:56;;;;;;;14.93;8.47;;;8.80;43.30;;;;;;4966590;28;20476;-63
2022/12/26 07:15:24;;;;;;;11.93;7.63;;;8.80;43.40;;;;;;4963903;28;20466;-63
2022/12/26 07:17:52;;;;;;;15.27;8.40;;;8.80;43.50;;;;;;4965772;28;20485;-63
2022/12/26 07:20:19;;;;;;;14.43;8.90;;;8.80;43.60;;;;;;4962105;28;20465;-63
2022/12/26 07:22:46;;;;;;;15.53;8.63;;;8.80;43.40;;;;;;4964957;28;20970;-63
2022/12/26 07:25:12;;;;;;;12.60;8.70;;;8.80;43.60;;;;;;4965778;28;20469;-63
2022/12/26 07:27:39;;;;;;;12.77;7.63;;;8.80;43.50;;;;;;4961578;28;20493;-63
2022/12/26 07:30:07;;;;;;;13.13;8.70;;;8.90;43.70;;;;;;4965342;28;20478;-64
2022/12/26 07:32:35;;;;;;;15.37;8.93;;;8.90;43.50;;;;;;4963150;28;20473;-63
2022/12/26 07:35:02;;;;;;;16.07;10.63;;;9.00;43.50;;;;;;4963772;28;20550;-63
2022/12/26 07:37:29;;;;;;;18.63;10.70;;;9.00;43.40;;;;;;4964975;28;20490;-63
2022/12/26 07:39:56;;;;;;;11.93;8.20;;;9.00;43.40;;;;;;4960453;28;20457;-63
2022/12/26 07:42:22;;;;;;;12.67;8.57;;;9.00;43.20;;;;;;4966947;28;20474;-63
2022/12/26 07:44:49;;;;;;;14.00;9.03;;;9.10;43.30;;;;;;4965523;28;20466;-63
2022/12/26 07:47:16;;;;;;;16.70;8.87;;;9.10;43.30;;;;;;4962279;28;20488;-63
2022/12/26 07:49:44;;;;;;;14.27;9.23;;;9.10;43.20;;;;;;4964333;28;20996;-63
2022/12/26 07:52:11;;;;;;;15.63;8.10;;;9.20;43.20;;;;;;4964192;28;20477;-63
2022/12/26 07:54:37;;;;;;;18.20;9.63;;;9.20;43.40;;;;;;4961442;28;20470;-63
2022/12/26 07:57:04;;;;;;;20.57;11.80;;;9.20;43.30;;;;;;4964377;28;20497;-63
2022/12/26 07:59:31;;;;;;;13.90;8.40;;;9.20;43.20;;;;;;4961943;28;20461;-64
2022/12/26 08:01:58;;;;;;;13.83;7.70;;;9.20;43.30;;;;;;4960796;28;20481;-64
2022/12/26 08:04:25;;;;;;;12.87;8.20;;;9.30;43.20;;;;;;4960532;28;20457;-64
2022/12/26 08:06:53;;;;;;;13.73;10.13;;;9.30;43.30;;;;;;4965095;28;20474;-64
2022/12/26 08:09:20;;;;;;;13.50;9.20;;;9.40;43.10;;;;;;4964737;28;20988;-66
2022/12/26 08:11:46;;;;;;;12.77;8.53;;;9.40;43.60;;;;;;4960812;28;20481;-67
2022/12/26 08:14:15;;;;;;;14.13;9.10;;;9.50;42.90;;;;;;4964518;28;20470;-64
2022/12/26 08:16:42;;;;;;;15.10;10.67;;;9.50;42.80;;;;;;4965109;28;20486;-65
2022/12/26 08:19:09;;;;;;;18.13;9.37;;;9.60;42.40;;;;;;4965673;28;22549;-64
2022/12/26 08:21:36;;;;;;;17.60;11.10;;;9.70;42.30;;;;;;4968291;28;20466;-65
2022/12/26 08:24:04;;;;;;;13.93;8.67;;;10.00;42.00;;;;;;4957766;28;20466;-64
2022/12/26 08:26:31;;;;;;;13.90;9.17;;;10.50;41.30;;;;;;4961511;28;20458;-65
2022/12/26 08:28:57;;;;;;;12.30;7.80;;;11.00;39.70;;;;;;4963157;28;20470;-65
2022/12/26 08:31:24;;;;;;;12.13;7.80;;;11.30;38.30;;;;;;4961923;28;20864;-65
2022/12/26 08:33:55;;;;;;;12.27;8.10;;;11.40;37.20;;;;;;4957591;28;20927;-65
2022/12/26 08:36:22;;;;;;;10.97;7.43;;;11.30;36.90;;;;;;4963285;28;21221;-65
2022/12/26 08:38:49;;;;;;;11.80;8.03;;;11.30;36.40;;;;;;4964576;28;20733;-65
2022/12/26 08:41:17;;;;;;;12.90;8.23;;;11.30;36.40;;;;;;4960776;28;20495;-65
2022/12/26 08:43:47;;;;;;;11.57;7.83;;;11.20;36.60;;;;;;4962611;28;20470;-65
2022/12/26 08:46:14;;;;;;;12.27;8.67;;;11.10;36.70;;;;;;4962191;28;20469;-64
2022/12/26 08:48:41;;;;;;;11.33;6.90;;;11.10;36.80;;;;;;4962346;28;20576;-65
2022/12/26 08:51:11;;;;;;;12.57;8.70;;;11.10;37.10;;;;;;4961105;28;20466;-64
2022/12/26 08:53:37;;;;;;;10.70;7.30;;;11.20;37.10;;;;;;4959899;28;20999;-64
2022/12/26 08:56:06;;;;;;;11.47;6.80;;;11.20;36.80;;;;;;4964972;28;20477;-66
2022/12/26 08:58:35;;;;;;;11.53;7.90;;;11.30;36.60;;;;;;4970360;28;20486;-68
2022/12/26 09:01:09;;;;;;;11.60;8.20;;;11.30;36.60;;;;;;4970456;28;21170;-69
2022/12/26 09:03:36;;;;;;;15.53;8.80;;;11.40;36.70;;;;;;4966429;28;20457;-69
2022/12/26 09:06:03;;;;;;;11.50;7.40;;;11.50;36.60;;;;;;4964540;28;20462;-67
2022/12/26 09:08:30;;;;;;;13.53;7.30;;;11.50;36.30;;;;;;4968171;28;20505;-66
2022/12/26 09:11:02;;;;;;;10.77;7.27;;;11.60;36.00;;;;;;4969144;28;22389;-66
2022/12/26 09:13:29;;;;;;;13.23;8.63;;;11.60;35.90;;;;;;4962469;28;20461;-69
2022/12/26 09:16:04;;;;;;;13.13;9.23;;;11.60;35.90;;;;;;4964190;28;20461;-67
2022/12/26 09:18:31;;;;;;;20.40;13.00;;;11.60;36.00;;;;;;4964366;28;20489;-65
2022/12/26 09:20:59;;;;;;;11.90;8.00;;;11.60;36.00;;;;;;4966761;28;20476;-66
2022/12/26 09:23:26;;;;;;;11.50;7.63;;;11.60;35.90;;;;;;4963836;28;20465;-67
2022/12/26 09:25:53;;;;;;;10.17;6.27;;;11.70;35.90;;;;;;4967288;28;21170;-65
2022/12/26 09:28:20;;;;;;;11.20;7.07;;;11.70;35.70;;;;;;4967957;28;21005;-64
2022/12/26 09:30:47;;;;;;;11.10;7.17;;;11.70;35.80;;;;;;4982460;23;20497;-66
2022/12/26 09:33:15;;;;;;;11.80;7.30;;;11.70;35.90;;;;;;4980014;28;20464;-66
2022/12/26 09:35:42;;;;;;;12.80;7.77;;;11.70;36.00;;;;;;4978964;28;20464;-66
2022/12/26 09:38:09;;;;;;;13.70;7.50;;;11.70;36.70;;;;;;4980250;28;20515;-64
2022/12/26 09:40:49;;;;;;;10.07;6.97;;;11.80;36.10;;;;;;4971451;28;20485;-64
2022/12/26 09:43:25;;;;;;;10.77;6.97;;;11.90;36.20;;;;;;4964052;28;21001;-65
2022/12/26 09:46:04;;;;;;;12.07;7.20;;;12.00;35.80;;;;;;4964983;28;21054;-65
2022/12/26 09:48:39;;;;;;;12.10;7.17;;;12.00;35.30;;;;;;4965553;28;20962;-65
2022/12/26 09:51:09;;;;;;;11.80;8.00;;;12.00;35.00;;;;;;4969682;28;20495;-65
2022/12/26 09:53:40;;;;;;;12.87;7.47;;;12.00;35.10;;;;;;4965140;28;20476;-65
2022/12/26 09:56:11;;;;;;;10.70;7.93;;;11.90;35.20;;;;;;4966277;28;20469;-65
2022/12/26 09:58:43;;;;;;;13.23;7.53;;;11.90;35.70;;;;;;4966933;28;20491;-65
2022/12/26 10:01:14;;;;;;;12.93;8.53;;;11.80;35.80;;;;;;4964104;28;20493;-65
2022/12/26 10:03:44;;;;;;;14.53;11.93;;;11.80;36.10;;;;;;4963788;28;20466;-64
2022/12/26 10:06:15;;;;;;;14.30;9.80;;;11.70;36.20;;;;;;4963501;28;21025;-64
2022/12/26 10:09:16;;;;;;;16.43;10.67;;;11.70;36.40;;;;;;4966545;28;20461;-64
2022/12/26 10:11:55;;;;;;;15.80;9.47;;;11.70;36.70;;;;;;4965774;28;20481;-64
2022/12/26 10:14:31;;;;;;;14.60;10.53;;;11.70;36.90;;;;;;4965457;28;20519;-64
2022/12/26 10:17:04;;;;;;;18.50;13.60;;;11.60;37.00;;;;;;4964070;28;20477;-65
2022/12/26 10:19:56;;;;;;;25.60;16.97;;;11.60;37.20;;;;;;4964380;28;20468;-65
2022/12/26 10:22:42;;;;;;;17.03;12.70;;;11.50;37.60;;;;;;4963097;28;20544;-64
2022/12/26 10:25:16;;;;;;;19.17;13.20;;;11.50;37.70;;;;;;4962839;28;20462;-65
2022/12/26 10:27:45;;;;;;;25.70;15.93;;;11.50;38.20;;;;;;4962685;28;20461;-66
2022/12/26 10:30:17;;;;;;;52.03;35.67;;;11.40;38.20;;;;;;4965268;28;20868;-64
2022/12/26 10:32:49;;;;;;;17.90;14.50;;;11.40;38.40;;;;;;4963404;28;20472;-64
2022/12/26 10:35:23;;;;;;;16.53;10.17;;;11.40;38.70;;;;;;4959387;28;20461;-64
2022/12/26 10:37:51;;;;;;;14.60;9.30;;;11.30;39.10;;;;;;4958001;28;20482;-65
2022/12/26 10:40:22;;;;;;;13.37;8.23;;;11.30;39.40;;;;;;4958832;28;20459;-63
2022/12/26 10:42:52;;;;;;;12.33;8.30;;;11.30;39.70;;;;;;4962290;28;20489;-64
2022/12/26 10:45:36;;;;;;;17.20;8.90;;;11.30;40.00;;;;;;4963107;28;20457;-63
2022/12/26 10:48:04;;;;;;;17.87;10.90;;;11.30;40.30;;;;;;4961406;28;20465;-63
2022/12/26 10:50:33;;;;;;;15.13;9.63;;;11.30;40.70;;;;;;4962492;28;20462;-63
2022/12/26 10:53:05;;;;;;;14.90;8.77;;;11.30;40.70;;;;;;4960241;28;20461;-64
2022/12/26 10:55:33;;;;;;;12.33;8.07;;;11.30;41.00;;;;;;4963048;28;20466;-68
2022/12/26 10:58:05;;;;;;;15.03;9.60;;;11.40;41.10;;;;;;4958385;28;20505;-65
2022/12/26 11:00:34;;;;;;;13.57;8.43;;;11.40;41.10;;;;;;4955173;28;20478;-64
2022/12/26 11:03:06;;;;;;;15.10;10.60;;;11.40;40.90;;;;;;4959599;28;20477;-62
2022/12/26 11:05:36;;;;;;;13.63;8.90;;;11.40;41.80;;;;;;4963308;28;20465;-61
2022/12/26 11:08:09;;;;;;;14.40;8.50;;;11.40;41.30;;;;;;4964536;28;20517;-62
2022/12/26 11:10:36;;;;;;;13.27;9.27;;;11.40;41.50;;;;;;4962547;28;20476;-70
2022/12/26 11:13:08;;;;;;;12.27;8.90;;;11.40;41.30;;;;;;4964700;28;20465;-64
2022/12/26 11:15:38;;;;;;;16.83;8.70;;;11.40;41.70;;;;;;4963317;28;20464;-64
2022/12/26 11:18:16;;;;;;;13.00;8.73;;;11.40;41.40;;;;;;4963385;28;20481;-64
2022/12/26 11:20:45;;;;;;;13.13;8.33;;;11.50;41.90;;;;;;4964203;28;20516;-66
2022/12/26 11:23:27;;;;;;;12.40;8.70;;;11.50;41.80;;;;;;4961357;28;20469;-65
2022/12/26 11:25:55;;;;;;;16.73;8.57;;;11.60;41.90;;;;;;4963174;28;21142;-64
2022/12/26 11:28:31;;;;;;;14.10;8.47;;;11.60;41.60;;;;;;4966098;28;20465;-66
2022/12/26 11:30:59;;;;;;;16.10;10.17;;;11.60;41.40;;;;;;4966087;28;20612;-65
2022/12/26 11:33:29;;;;;;;13.77;9.80;;;11.60;41.40;;;;;;4963098;28;20480;-71
2022/12/26 11:36:07;;;;;;;12.07;8.00;;;11.60;41.40;;;;;;4961617;28;21109;-67
2022/12/26 11:38:43;;;;;;;12.80;8.87;;;11.50;41.70;;;;;;4963577;28;20477;-63
2022/12/26 11:41:32;;;;;;;16.10;8.10;;;11.50;42.00;;;;;;4966031;28;20486;-65
2022/12/26 11:44:04;;;;;;;16.60;9.00;;;11.60;42.20;;;;;;4963895;28;20996;-63
2022/12/26 11:46:35;;;;;;;14.60;8.63;;;11.60;42.10;;;;;;4957231;28;20493;-63
2022/12/26 11:49:02;;;;;;;16.13;9.10;;;11.60;42.00;;;;;;4960364;28;20462;-63
2022/12/26 11:51:43;;;;;;;24.17;10.20;;;11.60;42.00;;;;;;4961699;28;20498;-63
2022/12/26 11:54:20;;;;;;;14.57;9.50;;;11.60;42.30;;;;;;4958886;28;20476;-63
2022/12/26 11:56:48;;;;;;;13.57;9.90;;;11.50;42.30;;;;;;4959385;28;21275;-63
2022/12/26 11:59:19;;;;;;;16.37;9.57;;;11.50;42.50;;;;;;4963754;28;20473;-63
2022/12/26 12:01:46;;;;;;;12.67;8.30;;;11.50;42.60;;;;;;4960231;28;20613;-63
2022/12/26 12:04:13;;;;;;;13.77;8.33;;;11.50;42.80;;;;;;4961282;28;22882;-63
2022/12/26 12:06:52;;;;;;;18.13;8.00;;;11.40;42.90;;;;;;4962212;28;20674;-63
2022/12/26 12:09:25;;;;;;;13.17;8.27;;;11.40;43.00;;;;;;4956887;28;20480;-63
2022/12/26 12:11:57;;;;;;;14.87;8.53;;;11.30;43.10;;;;;;4965735;28;20500;-63
2022/12/26 12:14:36;;;;;;;27.80;22.27;;;11.30;43.40;;;;;;4964797;28;20489;-63
2022/12/26 12:17:16;;;;;;;18.47;9.40;;;11.30;43.50;;;;;;4962727;28;20465;-63
2022/12/26 12:19:52;;;;;;;14.00;9.30;;;11.30;43.60;;;;;;4959248;28;20469;-64
2022/12/26 12:22:45;;;;;;;12.90;9.67;;;11.30;44.50;;;;;;4963923;28;20477;-64
2022/12/26 12:25:51;;;;;;;12.20;7.97;;;11.30;44.00;;;;;;4958427;28;20458;-64
2022/12/26 12:28:31;;;;;;;12.90;8.00;;;11.40;43.70;;;;;;4958925;28;20509;-64
2022/12/26 12:31:04;;;;;;;9.97;7.03;;;11.50;43.40;;;;;;4962276;28;20481;-64
2022/12/26 12:33:44;;;;;;;11.43;6.97;;;11.50;43.00;;;;;;4961158;28;20470;-64
2022/12/26 12:36:12;;;;;;;11.20;7.17;;;11.60;42.70;;;;;;4959114;28;20469;-63
2022/12/26 12:38:56;;;;;;;17.10;10.07;;;11.60;42.10;;;;;;4958198;28;20486;-63
2022/12/26 12:41:40;;;;;;;11.73;6.30;;;11.60;42.10;;;;;;4958295;28;20492;-63
2022/12/26 12:44:13;;;;;;;9.93;5.20;;;11.60;42.00;;;;;;4959829;28;20473;-63
2022/12/26 12:46:50;;;;;;;9.60;5.53;;;11.60;41.60;;;;;;4961587;28;20457;-64
2022/12/26 12:49:34;;;;;;;9.30;5.80;;;11.60;41.20;;;;;;4966419;28;20453;-64
2022/12/26 12:52:12;;;;;;;9.63;4.57;;;11.60;41.30;;;;;;4968217;28;21907;-64
2022/12/26 12:55:05;;;;;;;8.33;4.80;;;11.60;41.30;;;;;;4965300;28;21037;-64
2022/12/26 12:57:41;;;;;;;10.27;6.60;;;11.60;41.60;;;;;;4967552;28;20465;-64
2022/12/26 13:00:15;;;;;;;12.50;8.23;;;11.60;41.20;;;;;;4967308;28;20831;-63
2022/12/26 13:02:46;;;;;;;13.10;8.70;;;11.50;41.10;;;;;;4968993;28;20809;-64
2022/12/26 13:05:20;;;;;;;9.30;6.63;;;11.50;40.90;;;;;;4964500;28;20875;-63
2022/12/26 13:07:52;;;;;;;12.83;8.53;;;11.50;40.70;;;;;;4967062;28;20983;-64
2022/12/26 13:10:24;;;;;;;8.10;5.20;;;11.50;41.10;;;;;;4970748;28;20840;-64
2022/12/26 13:12:52;;;;;;;10.10;5.77;;;11.50;41.20;;;;;;4961158;28;20469;-64
2022/12/26 13:15:29;;;;;;;8.00;3.80;;;11.50;41.90;;;;;;4964539;28;20469;-64
2022/12/26 13:18:02;;;;;;;7.43;3.73;;;11.40;41.40;;;;;;4967686;28;20481;-65
2022/12/26 13:20:36;;;;;;;7.17;3.90;;;11.40;41.30;;;;;;4968626;28;24205;-64
2022/12/26 13:26:07;;;;;;;7.90;4.87;;;11.30;41.60;;;;;;4966450;28;21082;-64
2022/12/26 13:28:42;;;;;;;21.90;9.97;;;11.30;41.90;;;;;;4961562;28;20581;-64
2022/12/26 13:31:09;;;;;;;8.30;4.60;;;11.20;42.20;;;;;;4967792;28;20861;-64
2022/12/26 13:33:36;;;;;;;10.20;6.53;;;11.20;42.60;;;;;;4964590;28;20479;-64
2022/12/26 13:36:05;;;;;;;12.33;6.70;;;11.20;43.00;;;;;;4968728;28;20473;-64
2022/12/26 13:39:09;;;;;;;10.13;5.80;;;11.10;43.40;;;;;;4968171;28;20481;-64
2022/12/26 13:44:27;;;;;;;5.83;3.83;;;11.00;44.40;;;;;;4965847;28;20592;-63
2022/12/26 13:46:55;;;;;;;8.77;4.23;;;10.90;44.80;;;;;;4961816;28;20466;-64
2022/12/26 13:49:29;;;;;;;10.00;4.53;;;10.90;45.00;;;;;;4964317;28;20473;-63
2022/12/26 13:52:21;;;;;;;8.80;4.20;;;10.80;45.00;;;;;;4965678;28;20482;-63
2022/12/26 13:55:20;;;;;;;9.03;4.80;;;10.80;45.40;;;;;;4958604;28;20548;-63
2022/12/26 13:58:13;;;;;;;7.07;3.40;;;10.80;45.10;;;;;;4964658;28;20469;-63
2022/12/26 14:00:47;;;;;;;6.87;3.60;;;10.80;44.90;;;;;;4963976;28;20469;-64
2022/12/26 14:03:49;;;;;;;7.60;3.63;;;10.80;44.90;;;;;;4966174;28;20456;-64
2022/12/26 14:06:41;;;;;;;8.23;4.33;;;10.80;44.80;;;;;;4963522;28;20457;-64
2022/12/26 14:09:21;;;;;;;6.27;3.43;;;10.80;44.50;;;;;;4966511;28;20512;-64
2022/12/26 14:12:07;;;;;;;6.97;3.67;;;10.90;44.10;;;;;;4966338;28;20493;-64
2022/12/26 14:14:52;;;;;;;11.20;5.90;;;10.90;44.10;;;;;;4964305;28;20488;-64
2022/12/26 14:17:26;;;;;;;6.63;3.33;;;10.80;43.80;;;;;;4967054;28;20982;-64
2022/12/26 14:20:01;;;;;;;6.77;3.10;;;10.90;43.40;;;;;;4961298;28;21062;-64
2022/12/26 14:22:40;;;;;;;5.70;2.83;;;10.90;43.70;;;;;;4967492;28;20484;-64
2022/12/26 14:25:18;;;;;;;5.67;2.67;;;10.90;42.90;;;;;;4966526;28;22808;-63
2022/12/26 14:27:48;;;;;;;6.57;2.80;;;10.90;42.40;;;;;;4962394;28;22540;-64
2022/12/26 14:30:22;;;;;;;6.23;2.17;;;10.90;42.10;;;;;;4959913;28;20473;-64
2022/12/26 14:33:02;;;;;;;5.40;2.20;;;10.90;41.80;;;;;;4966463;28;20462;-63
2022/12/26 14:35:33;;;;;;;6.30;3.10;;;10.80;41.90;;;;;;4962683;28;21004;-64
2022/12/26 14:38:11;;;;;;;4.73;1.80;;;10.90;41.80;;;;;;4964682;28;20485;-63
2022/12/26 14:40:56;;;;;;;5.10;1.87;;;10.80;41.80;;;;;;4963042;28;20481;-64
2022/12/26 14:43:33;;;;;;;6.10;2.83;;;10.80;41.70;;;;;;4967262;28;20464;-63
2022/12/26 14:46:03;;;;;;;5.23;1.90;;;10.80;41.80;;;;;;4965376;28;20489;-63
2022/12/26 14:48:48;;;;;;;4.13;1.47;;;10.80;41.60;;;;;;4965461;28;20465;-63
2022/12/26 14:51:37;;;;;;;4.30;1.33;;;10.80;41.30;;;;;;4962341;28;20488;-63
2022/12/26 14:54:36;;;;;;;5.40;1.60;;;10.80;41.00;;;;;;4965958;28;20950;-65
2022/12/26 14:57:36;;;;;;;4.50;1.20;;;10.80;40.90;;;;;;4964390;28;20477;-63
2022/12/26 15:00:43;;;;;;;4.63;1.00;;;10.70;41.40;;;;;;4965314;28;20500;-63
2022/12/26 15:03:43;;;;;;;5.00;1.90;;;10.70;41.50;;;;;;4962695;28;20564;-62
2022/12/26 15:06:48;;;;;;;5.57;2.10;;;10.70;41.60;;;;;;4960946;28;20839;-62
2022/12/26 15:09:39;;;;;;;4.10;1.50;;;10.70;41.60;;;;;;4962906;28;20464;-62
2022/12/26 15:12:42;;;;;;;5.10;2.03;;;10.70;41.40;;;;;;4930400;28;20488;-62
2022/12/26 15:15:32;;;;;;;5.50;1.83;;;10.70;41.50;;;;;;4965751;28;20491;-63
2022/12/26 15:18:19;;;;;;;4.97;1.80;;;10.70;41.60;;;;;;4962656;28;20472;-63
2022/12/26 15:21:17;;;;;;;5.40;2.13;;;10.70;41.50;;;;;;4963036;28;20497;-63
2022/12/26 15:24:14;;;;;;;5.67;2.20;;;10.70;41.70;;;;;;4960405;28;20484;-63